Details From MUHA - La Havane Jose Marti Intl
To MUCC - Jardines Del Rey
Flight Number -
Tags Decoded
Created
Modified
Stats Distance 249 nm / 461 km
Max Altitude 0 ft / 0 m
Waypoints 4
Social Downloads 5
Likes 0
Share VATSIM

Download

Looking for another format? Having issues loading an existing format? Contact us
Advertisement - Login to hide

Notes

Decoded

Route

MUHA UCF UCA MUCC

ID Type Via Altitude Latitude Longitude Leg Dist Tot Dist Heading (true) Name
O MUHA APT - 0 ft / 0 m 22.97863˚ -82.42494˚ - 0 nm - -
UCF VOR - 0 ft / 0 m 22.15468˚ -80.40606˚ 122 nm 122 nm 113° / 114° CIENFUEGOS VOR-DME
UCA VOR - 0 ft / 0 m 22.01506˚ -78.81581˚ 88 nm 211 nm 95° / 96° CIEGO DE AVILA VOR-DME
O MUCC APT - 0 ft / 0 m 22.45654˚ -78.34238˚ 37 nm 248 nm 45° / 45° -

Altitude Profile

Advertisement - Login to hide

Weather


0- 5 10 15 20 25 30 35+ Temperature / ° C

Clouds and Precipitation
Forecast for 2017-12-15 00:00 UTC. Updated an hour ago

Ground ~20,000 ft ~40,000 ft Winds

MUHA

Details ICAO MUHA (HAV)
Name Havana Jose Marti Intl
Region Cuba
Timezone America/Havana (UTC-5.0)
Stats Elevation 209 ft / 64 m (AMSL)
Location 22.989154° -82.409086°
Runways 1
Magnetic Variation 4.908° W

METAR

MUHA 142155Z 06010KT 9000 FEW035 22/14 Q1017

Decode

TAF

Not found

Departure Runways

ID Width Length Bearing (true) Bearing (mag) Surface Threshold Offset Overrun Length
06 148 ft / 45 m 13,133 ft / 4,003 m 54.21° 59.12° Asphalt 0 ft / 0 m 476 ft / 145 m
24 148 ft / 45 m 13,133 ft / 4,003 m 234.23° 239.14° Asphalt 0 ft / 0 m 197 ft / 60 m

MUCC

Details ICAO MUCC
Name JARDINES DEL REY
Region Cuba
Timezone America/Havana (UTC-5.0)
Stats Elevation 13 ft / 4 m (AMSL)
Location 22.460945° -78.328602°
Runways 1
Magnetic Variation 7.317° W

METAR

MUCC 142150Z 07007KT 9000 BKN060 23/15 Q1017

Decode

TAF

Not found

Destination Runways

ID Width Length Bearing (true) Bearing (mag) Surface Threshold Offset Overrun Length
08 148 ft / 45 m 9,835 ft / 2,998 m 70.91° 78.23° Asphalt 0 ft / 0 m 0 ft / 0 m
26 148 ft / 45 m 9,835 ft / 2,998 m 250.92° 258.24° Asphalt 0 ft / 0 m 0 ft / 0 m

Approach Navaids

Runway Type Ident Frequency Range Bearing (true) Bearing (mag) Slope Elevation
08 Localiser ICJ 109.90 MHz 18 nm / 33 km 70.92° 78.23° - 13 ft / 4 m (AMSL)
08 Glidescope ICJ 109.90 MHz 10 nm / 19 km 70.92° 78.23° 3.00° 98 ft / 30 m (AMSL)

Popular Alternatives